sensor_id;sensor_type;location;lat;lon;timestamp;temperature;humidity
10231;DHT22;62604;49.432;8.680;2023-06-22T00:00:14;22.50;93.20
10231;DHT22;62604;49.432;8.680;2023-06-22T00:02:41;22.50;93.20
10231;DHT22;62604;49.432;8.680;2023-06-22T00:05:09;22.60;92.50
10231;DHT22;62604;49.432;8.680;2023-06-22T00:07:36;22.60;92.00
10231;DHT22;62604;49.432;8.680;2023-06-22T00:10:03;22.60;91.60
10231;DHT22;62604;49.432;8.680;2023-06-22T00:12:30;22.70;90.80
10231;DHT22;62604;49.432;8.680;2023-06-22T00:14:57;22.70;90.20
10231;DHT22;62604;49.432;8.680;2023-06-22T00:17:24;22.70;89.80
10231;DHT22;62604;49.432;8.680;2023-06-22T00:19:51;22.80;88.20
10231;DHT22;62604;49.432;8.680;2023-06-22T00:22:23;22.90;86.80
10231;DHT22;62604;49.432;8.680;2023-06-22T00:24:54;23.00;85.70
10231;DHT22;62604;49.432;8.680;2023-06-22T00:27:21;22.90;85.90
10231;DHT22;62604;49.432;8.680;2023-06-22T00:29:48;23.00;84.80
10231;DHT22;62604;49.432;8.680;2023-06-22T00:32:15;23.00;85.20
10231;DHT22;62604;49.432;8.680;2023-06-22T00:34:42;23.00;85.10
10231;DHT22;62604;49.432;8.680;2023-06-22T00:37:09;23.00;85.10
10231;DHT22;62604;49.432;8.680;2023-06-22T00:39:39;23.10;87.50
10231;DHT22;62604;49.432;8.680;2023-06-22T00:42:06;23.00;91.00
10231;DHT22;62604;49.432;8.680;2023-06-22T00:44:32;22.90;92.00
10231;DHT22;62604;49.432;8.680;2023-06-22T00:46:59;22.80;92.80
10231;DHT22;62604;49.432;8.680;2023-06-22T00:49:26;22.70;93.70
10231;DHT22;62604;49.432;8.680;2023-06-22T00:51:54;22.80;93.60
10231;DHT22;62604;49.432;8.680;2023-06-22T00:54:21;22.80;92.90
10231;DHT22;62604;49.432;8.680;2023-06-22T00:56:51;22.90;93.40
10231;DHT22;62604;49.432;8.680;2023-06-22T00:59:21;22.90;93.30
10231;DHT22;62604;49.432;8.680;2023-06-22T01:01:48;22.90;93.90
10231;DHT22;62604;49.432;8.680;2023-06-22T01:04:15;22.90;94.70
10231;DHT22;62604;49.432;8.680;2023-06-22T01:06:47;22.80;97.70
10231;DHT22;62604;49.432;8.680;2023-06-22T01:09:22;22.40;99.90
10231;DHT22;62604;49.432;8.680;2023-06-22T01:11:55;21.80;99.90
10231;DHT22;62604;49.432;8.680;2023-06-22T01:14:27;21.40;99.90
10231;DHT22;62604;49.432;8.680;2023-06-22T01:16:57;21.30;99.90
10231;DHT22;62604;49.432;8.680;2023-06-22T01:19:37;21.10;99.90
10231;DHT22;62604;49.432;8.680;2023-06-22T01:22:05;20.90;99.90
10231;DHT22;62604;49.432;8.680;2023-06-22T01:24:48;20.80;99.90
10231;DHT22;62604;49.432;8.680;2023-06-22T01:27:32;20.80;99.90
10231;DHT22;62604;49.432;8.680;2023-06-22T01:30:09;20.80;99.90
10231;DHT22;62604;49.432;8.680;2023-06-22T01:32:38;20.80;99.90
10231;DHT22;62604;49.432;8.680;2023-06-22T01:35:07;20.80;99.90
10231;DHT22;62604;49.432;8.680;2023-06-22T01:37:36;20.70;99.90
10231;DHT22;62604;49.432;8.680;2023-06-22T01:40:05;20.70;99.90
10231;DHT22;62604;49.432;8.680;2023-06-22T01:42:32;20.60;99.90
10231;DHT22;62604;49.432;8.680;2023-06-22T01:45:01;20.80;99.90
10231;DHT22;62604;49.432;8.680;2023-06-22T01:47:30;20.80;99.90
10231;DHT22;62604;49.432;8.680;2023-06-22T01:49:57;20.60;99.90
10231;DHT22;62604;49.432;8.680;2023-06-22T01:52:25;20.60;99.90
10231;DHT22;62604;49.432;8.680;2023-06-22T01:54:51;20.60;99.90
10231;DHT22;62604;49.432;8.680;2023-06-22T01:57:18;20.50;99.90
10231;DHT22;62604;49.432;8.680;2023-06-22T01:59:50;20.40;99.90
10231;DHT22;62604;49.432;8.680;2023-06-22T02:02:20;20.30;99.90
10231;DHT22;62604;49.432;8.680;2023-06-22T02:04:57;20.30;99.90
10231;DHT22;62604;49.432;8.680;2023-06-22T02:07:29;20.10;99.90
10231;DHT22;62604;49.432;8.680;2023-06-22T02:09:59;20.10;99.90
10231;DHT22;62604;49.432;8.680;2023-06-22T02:12:29;20.00;99.90
10231;DHT22;62604;49.432;8.680;2023-06-22T02:14:58;19.90;99.90
10231;DHT22;62604;49.432;8.680;2023-06-22T02:17:26;19.90;99.90
10231;DHT22;62604;49.432;8.680;2023-06-22T02:19:54;19.80;99.90
10231;DHT22;62604;49.432;8.680;2023-06-22T02:22:21;19.80;99.90
10231;DHT22;62604;49.432;8.680;2023-06-22T02:24:49;19.80;99.90
10231;DHT22;62604;49.432;8.680;2023-06-22T02:27:16;19.80;99.90
10231;DHT22;62604;49.432;8.680;2023-06-22T02:29:43;19.70;99.90
10231;DHT22;62604;49.432;8.680;2023-06-22T02:32:10;19.70;99.90
10231;DHT22;62604;49.432;8.680;2023-06-22T02:34:36;19.70;99.90
10231;DHT22;62604;49.432;8.680;2023-06-22T02:37:05;19.70;99.90
10231;DHT22;62604;49.432;8.680;2023-06-22T02:39:32;19.60;99.90
10231;DHT22;62604;49.432;8.680;2023-06-22T02:41:59;19.60;99.90
10231;DHT22;62604;49.432;8.680;2023-06-22T02:44:26;19.60;99.90
10231;DHT22;62604;49.432;8.680;2023-06-22T02:46:53;19.60;99.90
10231;DHT22;62604;49.432;8.680;2023-06-22T02:49:20;19.50;99.90
10231;DHT22;62604;49.432;8.680;2023-06-22T02:51:48;19.50;99.90
10231;DHT22;62604;49.432;8.680;2023-06-22T02:54:16;19.50;99.90
10231;DHT22;62604;49.432;8.680;2023-06-22T02:56:43;19.50;99.90
10231;DHT22;62604;49.432;8.680;2023-06-22T02:59:10;19.40;99.90
10231;DHT22;62604;49.432;8.680;2023-06-22T03:01:37;19.40;99.90
10231;DHT22;62604;49.432;8.680;2023-06-22T03:04:06;19.50;99.90
10231;DHT22;62604;49.432;8.680;2023-06-22T03:06:34;19.50;99.90
10231;DHT22;62604;49.432;8.680;2023-06-22T03:09:02;19.40;99.90
10231;DHT22;62604;49.432;8.680;2023-06-22T03:11:32;19.40;99.90
10231;DHT22;62604;49.432;8.680;2023-06-22T03:13:59;19.40;99.90
10231;DHT22;62604;49.432;8.680;2023-06-22T03:16:26;19.40;99.90
10231;DHT22;62604;49.432;8.680;2023-06-22T03:18:53;19.40;99.90
10231;DHT22;62604;49.432;8.680;2023-06-22T03:21:22;19.30;99.90
10231;DHT22;62604;49.432;8.680;2023-06-22T03:23:49;19.30;99.90
10231;DHT22;62604;49.432;8.680;2023-06-22T03:26:17;19.30;99.90
10231;DHT22;62604;49.432;8.680;2023-06-22T03:28:46;19.30;99.90
10231;DHT22;62604;49.432;8.680;2023-06-22T03:31:13;19.30;99.90
10231;DHT22;62604;49.432;8.680;2023-06-22T03:33:40;19.20;99.90
10231;DHT22;62604;49.432;8.680;2023-06-22T03:36:07;19.20;99.90
10231;DHT22;62604;49.432;8.680;2023-06-22T03:38:38;19.20;99.90
10231;DHT22;62604;49.432;8.680;2023-06-22T03:41:12;19.30;99.90
10231;DHT22;62604;49.432;8.680;2023-06-22T03:43:42;19.40;99.90
10231;DHT22;62604;49.432;8.680;2023-06-22T03:46:10;19.50;99.90
10231;DHT22;62604;49.432;8.680;2023-06-22T03:48:38;19.60;99.90
10231;DHT22;62604;49.432;8.680;2023-06-22T03:51:05;19.70;99.90
10231;DHT22;62604;49.432;8.680;2023-06-22T03:53:32;19.70;99.90
10231;DHT22;62604;49.432;8.680;2023-06-22T03:55:58;19.70;99.90
10231;DHT22;62604;49.432;8.680;2023-06-22T03:58:26;19.70;99.90
10231;DHT22;62604;49.432;8.680;2023-06-22T04:00:59;19.70;99.90
10231;DHT22;62604;49.432;8.680;2023-06-22T04:03:30;19.60;99.90
10231;DHT22;62604;49.432;8.680;2023-06-22T04:05:57;19.60;99.90
10231;DHT22;62604;49.432;8.680;2023-06-22T04:08:24;19.70;99.90
10231;DHT22;62604;49.432;8.680;2023-06-22T04:10:51;19.80;99.90
10231;DHT22;62604;49.432;8.680;2023-06-22T04:13:18;19.80;99.90
10231;DHT22;62604;49.432;8.680;2023-06-22T04:15:45;19.90;99.90
10231;DHT22;62604;49.432;8.680;2023-06-22T04:18:12;19.90;99.90
10231;DHT22;62604;49.432;8.680;2023-06-22T04:20:40;19.90;99.90
10231;DHT22;62604;49.432;8.680;2023-06-22T04:23:07;20.00;99.90
10231;DHT22;62604;49.432;8.680;2023-06-22T04:25:36;20.10;99.90
10231;DHT22;62604;49.432;8.680;2023-06-22T04:28:03;20.10;99.90
10231;DHT22;62604;49.432;8.680;2023-06-22T04:30:32;20.30;99.90
10231;DHT22;62604;49.432;8.680;2023-06-22T04:32:59;20.30;99.90
10231;DHT22;62604;49.432;8.680;2023-06-22T04:35:26;20.50;99.90
10231;DHT22;62604;49.432;8.680;2023-06-22T04:38:00;20.70;99.90
10231;DHT22;62604;49.432;8.680;2023-06-22T04:40:29;20.90;99.90
10231;DHT22;62604;49.432;8.680;2023-06-22T04:42:58;21.00;99.90
10231;DHT22;62604;49.432;8.680;2023-06-22T04:45:29;21.10;99.90
10231;DHT22;62604;49.432;8.680;2023-06-22T04:47:56;21.30;99.90
10231;DHT22;62604;49.432;8.680;2023-06-22T04:50:25;21.40;99.90
10231;DHT22;62604;49.432;8.680;2023-06-22T04:52:52;21.60;99.90
10231;DHT22;62604;49.432;8.680;2023-06-22T04:55:20;21.70;99.90
10231;DHT22;62604;49.432;8.680;2023-06-22T04:57:48;22.00;99.90
10231;DHT22;62604;49.432;8.680;2023-06-22T05:00:16;22.10;99.90
10231;DHT22;62604;49.432;8.680;2023-06-22T05:02:55;22.10;99.90
10231;DHT22;62604;49.432;8.680;2023-06-22T05:05:23;22.10;99.90
10231;DHT22;62604;49.432;8.680;2023-06-22T05:07:51;22.10;99.90
10231;DHT22;62604;49.432;8.680;2023-06-22T05:10:21;22.30;99.90
10231;DHT22;62604;49.432;8.680;2023-06-22T05:12:49;22.50;98.30
10231;DHT22;62604;49.432;8.680;2023-06-22T05:15:16;22.60;99.90
10231;DHT22;62604;49.432;8.680;2023-06-22T05:17:45;22.60;98.50
10231;DHT22;62604;49.432;8.680;2023-06-22T05:20:12;22.80;96.60
10231;DHT22;62604;49.432;8.680;2023-06-22T05:22:39;22.80;97.60
10231;DHT22;62604;49.432;8.680;2023-06-22T05:25:09;22.80;97.90
10231;DHT22;62604;49.432;8.680;2023-06-22T05:27:37;22.90;95.20
10231;DHT22;62604;49.432;8.680;2023-06-22T05:30:06;23.00;94.30
10231;DHT22;62604;49.432;8.680;2023-06-22T05:32:35;23.00;94.60
10231;DHT22;62604;49.432;8.680;2023-06-22T05:35:05;23.10;95.50
10231;DHT22;62604;49.432;8.680;2023-06-22T05:37:32;23.10;94.40
10231;DHT22;62604;49.432;8.680;2023-06-22T05:39:59;23.30;93.00
10231;DHT22;62604;49.432;8.680;2023-06-22T05:42:26;23.30;93.40
10231;DHT22;62604;49.432;8.680;2023-06-22T05:44:54;23.40;92.60
10231;DHT22;62604;49.432;8.680;2023-06-22T05:47:21;23.50;92.10
10231;DHT22;62604;49.432;8.680;2023-06-22T05:49:48;23.60;90.80
10231;DHT22;62604;49.432;8.680;2023-06-22T05:52:15;23.70;90.70
10231;DHT22;62604;49.432;8.680;2023-06-22T05:54:42;23.80;91.00
10231;DHT22;62604;49.432;8.680;2023-06-22T05:57:09;23.90;90.40
10231;DHT22;62604;49.432;8.680;2023-06-22T05:59:36;24.00;89.70
10231;DHT22;62604;49.432;8.680;2023-06-22T06:02:05;24.00;89.20
10231;DHT22;62604;49.432;8.680;2023-06-22T06:04:32;24.10;89.40
10231;DHT22;62604;49.432;8.680;2023-06-22T06:06:59;24.30;89.00
10231;DHT22;62604;49.432;8.680;2023-06-22T06:09:26;24.40;88.90
10231;DHT22;62604;49.432;8.680;2023-06-22T06:11:53;24.40;88.20
10231;DHT22;62604;49.432;8.680;2023-06-22T06:14:20;24.50;88.10
10231;DHT22;62604;49.432;8.680;2023-06-22T06:16:48;24.60;86.60
10231;DHT22;62604;49.432;8.680;2023-06-22T06:19:16;24.80;87.00
10231;DHT22;62604;49.432;8.680;2023-06-22T06:21:43;25.00;86.70
10231;DHT22;62604;49.432;8.680;2023-06-22T06:24:10;25.10;85.90
10231;DHT22;62604;49.432;8.680;2023-06-22T06:26:37;25.10;83.90
10231;DHT22;62604;49.432;8.680;2023-06-22T06:29:04;25.40;82.30
10231;DHT22;62604;49.432;8.680;2023-06-22T06:31:31;25.60;80.70
10231;DHT22;62604;49.432;8.680;2023-06-22T06:33:59;25.80;81.90
10231;DHT22;62604;49.432;8.680;2023-06-22T06:36:27;26.00;82.00
10231;DHT22;62604;49.432;8.680;2023-06-22T06:38:54;26.00;78.80
10231;DHT22;62604;49.432;8.680;2023-06-22T06:41:22;25.90;79.10
10231;DHT22;62604;49.432;8.680;2023-06-22T06:43:51;26.00;79.50
10231;DHT22;62604;49.432;8.680;2023-06-22T06:46:19;26.10;80.40
10231;DHT22;62604;49.432;8.680;2023-06-22T06:48:47;26.40;78.80
10231;DHT22;62604;49.432;8.680;2023-06-22T06:51:16;26.50;75.60
10231;DHT22;62604;49.432;8.680;2023-06-22T06:53:44;26.70;75.60
10231;DHT22;62604;49.432;8.680;2023-06-22T06:56:11;26.40;75.00
10231;DHT22;62604;49.432;8.680;2023-06-22T06:58:40;26.90;75.70
10231;DHT22;62604;49.432;8.680;2023-06-22T07:01:07;27.10;73.70
10231;DHT22;62604;49.432;8.680;2023-06-22T07:03:34;27.60;71.50
10231;DHT22;62604;49.432;8.680;2023-06-22T07:06:01;27.70;70.50
10231;DHT22;62604;49.432;8.680;2023-06-22T07:08:28;28.00;67.90
10231;DHT22;62604;49.432;8.680;2023-06-22T07:10:56;28.20;66.10
10231;DHT22;62604;49.432;8.680;2023-06-22T07:13:23;28.70;63.80
10231;DHT22;62604;49.432;8.680;2023-06-22T07:15:50;28.70;62.00
10231;DHT22;62604;49.432;8.680;2023-06-22T07:18:17;29.60;61.20
10231;DHT22;62604;49.432;8.680;2023-06-22T07:20:44;30.00;54.50
10231;DHT22;62604;49.432;8.680;2023-06-22T07:23:11;30.80;55.80
10231;DHT22;62604;49.432;8.680;2023-06-22T07:25:38;31.00;53.50
10231;DHT22;62604;49.432;8.680;2023-06-22T07:28:07;31.60;51.80
10231;DHT22;62604;49.432;8.680;2023-06-22T07:30:34;31.70;47.60
10231;DHT22;62604;49.432;8.680;2023-06-22T07:33:01;32.00;50.20
10231;DHT22;62604;49.432;8.680;2023-06-22T07:35:29;32.70;44.00
10231;DHT22;62604;49.432;8.680;2023-06-22T07:37:56;32.20;42.80
10231;DHT22;62604;49.432;8.680;2023-06-22T07:40:23;32.70;43.80
10231;DHT22;62604;49.432;8.680;2023-06-22T07:42:50;32.30;42.10
10231;DHT22;62604;49.432;8.680;2023-06-22T07:45:20;32.00;43.30
10231;DHT22;62604;49.432;8.680;2023-06-22T07:47:47;32.80;42.30
10231;DHT22;62604;49.432;8.680;2023-06-22T07:50:14;32.80;42.90
10231;DHT22;62604;49.432;8.680;2023-06-22T07:52:41;31.10;41.30
10231;DHT22;62604;49.432;8.680;2023-06-22T07:55:08;31.50;45.30
10231;DHT22;62604;49.432;8.680;2023-06-22T07:57:35;32.40;40.30
10231;DHT22;62604;49.432;8.680;2023-06-22T08:00:03;32.80;39.00
10231;DHT22;62604;49.432;8.680;2023-06-22T08:02:38;31.70;36.90
10231;DHT22;62604;49.432;8.680;2023-06-22T08:05:06;31.70;42.60
10231;DHT22;62604;49.432;8.680;2023-06-22T08:07:34;33.00;39.00
10231;DHT22;62604;49.432;8.680;2023-06-22T08:10:01;33.40;37.40
10231;DHT22;62604;49.432;8.680;2023-06-22T08:12:28;32.90;34.40
10231;DHT22;62604;49.432;8.680;2023-06-22T08:14:54;31.70;40.80
10231;DHT22;62604;49.432;8.680;2023-06-22T08:17:22;32.20;40.60
10231;DHT22;62604;49.432;8.680;2023-06-22T08:19:50;31.40;36.70
10231;DHT22;62604;49.432;8.680;2023-06-22T08:22:17;32.30;36.10
10231;DHT22;62604;49.432;8.680;2023-06-22T08:24:44;32.30;35.00
10231;DHT22;62604;49.432;8.680;2023-06-22T08:27:11;31.90;33.80
10231;DHT22;62604;49.432;8.680;2023-06-22T08:29:39;31.70;34.30
10231;DHT22;62604;49.432;8.680;2023-06-22T08:32:08;32.40;34.30
10231;DHT22;62604;49.432;8.680;2023-06-22T08:34:35;33.50;34.90
10231;DHT22;62604;49.432;8.680;2023-06-22T08:37:04;33.80;30.90
10231;DHT22;62604;49.432;8.680;2023-06-22T08:39:31;34.00;32.40
10231;DHT22;62604;49.432;8.680;2023-06-22T08:41:59;35.20;32.90
10231;DHT22;62604;49.432;8.680;2023-06-22T08:44:26;35.30;26.70
10231;DHT22;62604;49.432;8.680;2023-06-22T08:46:53;34.50;26.60
10231;DHT22;62604;49.432;8.680;2023-06-22T08:49:20;35.10;25.90
10231;DHT22;62604;49.432;8.680;2023-06-22T08:51:48;34.80;25.30
10231;DHT22;62604;49.432;8.680;2023-06-22T08:54:19;34.30;26.40
10231;DHT22;62604;49.432;8.680;2023-06-22T08:56:46;34.70;26.30
10231;DHT22;62604;49.432;8.680;2023-06-22T08:59:12;34.60;26.40
10231;DHT22;62604;49.432;8.680;2023-06-22T09:01:39;34.00;26.30
10231;DHT22;62604;49.432;8.680;2023-06-22T09:04:14;34.40;26.50
10231;DHT22;62604;49.432;8.680;2023-06-22T09:06:41;35.50;25.20
10231;DHT22;62604;49.432;8.680;2023-06-22T09:09:10;35.70;24.20
10231;DHT22;62604;49.432;8.680;2023-06-22T09:11:38;34.40;25.40
10231;DHT22;62604;49.432;8.680;2023-06-22T09:14:05;33.70;25.50
10231;DHT22;62604;49.432;8.680;2023-06-22T09:16:33;33.00;26.90
10231;DHT22;62604;49.432;8.680;2023-06-22T09:19:00;32.90;27.50
10231;DHT22;62604;49.432;8.680;2023-06-22T09:21:27;33.20;28.20
10231;DHT22;62604;49.432;8.680;2023-06-22T09:23:54;33.50;28.90
10231;DHT22;62604;49.432;8.680;2023-06-22T09:26:22;33.90;26.60
10231;DHT22;62604;49.432;8.680;2023-06-22T09:28:50;33.20;27.00
10231;DHT22;62604;49.432;8.680;2023-06-22T09:31:17;32.50;28.30
10231;DHT22;62604;49.432;8.680;2023-06-22T09:33:51;32.10;29.40
10231;DHT22;62604;49.432;8.680;2023-06-22T09:36:18;32.50;28.90
10231;DHT22;62604;49.432;8.680;2023-06-22T09:38:45;31.90;30.00
10231;DHT22;62604;49.432;8.680;2023-06-22T09:41:12;31.70;31.30
10231;DHT22;62604;49.432;8.680;2023-06-22T09:43:39;31.20;32.40
10231;DHT22;62604;49.432;8.680;2023-06-22T09:46:07;31.00;34.10
10231;DHT22;62604;49.432;8.680;2023-06-22T09:48:35;31.80;34.40
10231;DHT22;62604;49.432;8.680;2023-06-22T09:51:02;32.30;31.50
10231;DHT22;62604;49.432;8.680;2023-06-22T09:53:28;33.70;33.50
10231;DHT22;62604;49.432;8.680;2023-06-22T09:55:55;34.00;30.50
10231;DHT22;62604;49.432;8.680;2023-06-22T09:58:22;34.50;29.10
10231;DHT22;62604;49.432;8.680;2023-06-22T10:00:49;35.20;28.50
10231;DHT22;62604;49.432;8.680;2023-06-22T10:03:17;35.40;27.10
10231;DHT22;62604;49.432;8.680;2023-06-22T10:05:44;35.50;27.00
10231;DHT22;62604;49.432;8.680;2023-06-22T10:08:11;36.10;25.10
10231;DHT22;62604;49.432;8.680;2023-06-22T10:10:38;36.20;25.80
10231;DHT22;62604;49.432;8.680;2023-06-22T10:13:08;36.40;25.40
10231;DHT22;62604;49.432;8.680;2023-06-22T10:15:36;34.50;26.40
10231;DHT22;62604;49.432;8.680;2023-06-22T10:18:04;33.30;27.80
10231;DHT22;62604;49.432;8.680;2023-06-22T10:20:32;32.10;30.20
10231;DHT22;62604;49.432;8.680;2023-06-22T10:22:59;31.20;32.50
10231;DHT22;62604;49.432;8.680;2023-06-22T10:25:26;31.60;35.40
10231;DHT22;62604;49.432;8.680;2023-06-22T10:27:53;31.70;33.30
10231;DHT22;62604;49.432;8.680;2023-06-22T10:30:20;31.90;33.70
10231;DHT22;62604;49.432;8.680;2023-06-22T10:32:47;31.40;33.80
10231;DHT22;62604;49.432;8.680;2023-06-22T10:35:14;31.20;35.80
10231;DHT22;62604;49.432;8.680;2023-06-22T10:37:43;31.30;35.20
10231;DHT22;62604;49.432;8.680;2023-06-22T10:40:12;31.20;36.40
10231;DHT22;62604;49.432;8.680;2023-06-22T10:42:39;30.90;36.80
10231;DHT22;62604;49.432;8.680;2023-06-22T10:45:07;30.90;36.90
10231;DHT22;62604;49.432;8.680;2023-06-22T10:47:34;30.80;37.30
10231;DHT22;62604;49.432;8.680;2023-06-22T10:50:01;30.60;36.90
10231;DHT22;62604;49.432;8.680;2023-06-22T10:52:28;30.30;38.30
10231;DHT22;62604;49.432;8.680;2023-06-22T10:54:57;30.50;38.40
10231;DHT22;62604;49.432;8.680;2023-06-22T10:57:24;30.70;38.40
10231;DHT22;62604;49.432;8.680;2023-06-22T10:59:51;31.50;36.90
10231;DHT22;62604;49.432;8.680;2023-06-22T11:02:18;32.40;34.40
10231;DHT22;62604;49.432;8.680;2023-06-22T11:04:45;33.20;33.80
10231;DHT22;62604;49.432;8.680;2023-06-22T11:07:13;33.90;30.40
10231;DHT22;62604;49.432;8.680;2023-06-22T11:09:40;34.20;29.60
10231;DHT22;62604;49.432;8.680;2023-06-22T11:12:08;33.30;30.00
10231;DHT22;62604;49.432;8.680;2023-06-22T11:14:35;32.90;31.20
10231;DHT22;62604;49.432;8.680;2023-06-22T11:17:02;32.40;31.90
10231;DHT22;62604;49.432;8.680;2023-06-22T11:19:29;32.30;32.60
10231;DHT22;62604;49.432;8.680;2023-06-22T11:21:56;32.20;33.10
10231;DHT22;62604;49.432;8.680;2023-06-22T11:24:23;32.50;31.70
10231;DHT22;62604;49.432;8.680;2023-06-22T11:26:50;32.70;32.20
10231;DHT22;62604;49.432;8.680;2023-06-22T11:29:18;33.10;30.80
10231;DHT22;62604;49.432;8.680;2023-06-22T11:31:45;33.20;30.00
10231;DHT22;62604;49.432;8.680;2023-06-22T11:34:12;33.10;31.00
10231;DHT22;62604;49.432;8.680;2023-06-22T11:36:39;32.50;30.80
10231;DHT22;62604;49.432;8.680;2023-06-22T11:39:08;31.90;32.00
10231;DHT22;62604;49.432;8.680;2023-06-22T11:41:36;31.40;33.00
10231;DHT22;62604;49.432;8.680;2023-06-22T11:44:03;31.30;33.80
10231;DHT22;62604;49.432;8.680;2023-06-22T11:46:32;31.60;33.80
10231;DHT22;62604;49.432;8.680;2023-06-22T11:49:00;31.60;32.70
10231;DHT22;62604;49.432;8.680;2023-06-22T11:51:27;32.00;32.20
10231;DHT22;62604;49.432;8.680;2023-06-22T11:53:56;32.10;32.70
10231;DHT22;62604;49.432;8.680;2023-06-22T11:56:23;32.20;31.90
10231;DHT22;62604;49.432;8.680;2023-06-22T11:58:50;32.00;32.90
10231;DHT22;62604;49.432;8.680;2023-06-22T12:01:17;32.20;33.10
10231;DHT22;62604;49.432;8.680;2023-06-22T12:03:45;32.30;32.50
10231;DHT22;62604;49.432;8.680;2023-06-22T12:06:13;32.20;33.10
10231;DHT22;62604;49.432;8.680;2023-06-22T12:08:40;32.30;30.90
10231;DHT22;62604;49.432;8.680;2023-06-22T12:11:08;32.30;30.60
10231;DHT22;62604;49.432;8.680;2023-06-22T12:13:35;32.10;31.10
10231;DHT22;62604;49.432;8.680;2023-06-22T12:16:02;32.20;31.20
10231;DHT22;62604;49.432;8.680;2023-06-22T12:18:29;31.90;31.10
10231;DHT22;62604;49.432;8.680;2023-06-22T12:20:57;31.90;31.70
10231;DHT22;62604;49.432;8.680;2023-06-22T12:23:24;32.00;31.90
10231;DHT22;62604;49.432;8.680;2023-06-22T12:25:51;32.40;31.10
10231;DHT22;62604;49.432;8.680;2023-06-22T12:28:18;32.60;30.40
10231;DHT22;62604;49.432;8.680;2023-06-22T12:30:45;32.30;30.90
10231;DHT22;62604;49.432;8.680;2023-06-22T12:33:12;32.70;30.60
10231;DHT22;62604;49.432;8.680;2023-06-22T12:35:39;32.90;29.80
10231;DHT22;62604;49.432;8.680;2023-06-22T12:38:07;33.20;29.60
10231;DHT22;62604;49.432;8.680;2023-06-22T12:40:34;33.80;29.20
10231;DHT22;62604;49.432;8.680;2023-06-22T12:43:01;34.00;28.40
10231;DHT22;62604;49.432;8.680;2023-06-22T12:45:28;34.50;27.40
10231;DHT22;62604;49.432;8.680;2023-06-22T12:47:59;34.80;26.50
10231;DHT22;62604;49.432;8.680;2023-06-22T12:50:26;35.60;26.70
10231;DHT22;62604;49.432;8.680;2023-06-22T12:52:53;34.70;25.20
10231;DHT22;62604;49.432;8.680;2023-06-22T12:55:21;34.60;26.30
10231;DHT22;62604;49.432;8.680;2023-06-22T12:57:48;34.30;27.50
10231;DHT22;62604;49.432;8.680;2023-06-22T13:00:16;33.70;27.40
10231;DHT22;62604;49.432;8.680;2023-06-22T13:02:43;33.40;28.40
10231;DHT22;62604;49.432;8.680;2023-06-22T13:05:10;33.10;28.70
10231;DHT22;62604;49.432;8.680;2023-06-22T13:07:37;33.10;29.60
10231;DHT22;62604;49.432;8.680;2023-06-22T13:10:04;32.90;29.50
10231;DHT22;62604;49.432;8.680;2023-06-22T13:12:33;32.50;30.30
10231;DHT22;62604;49.432;8.680;2023-06-22T13:15:00;32.10;30.00
10231;DHT22;62604;49.432;8.680;2023-06-22T13:17:28;31.90;30.40
10231;DHT22;62604;49.432;8.680;2023-06-22T13:19:55;32.10;31.30
10231;DHT22;62604;49.432;8.680;2023-06-22T13:22:30;32.70;30.60
10231;DHT22;62604;49.432;8.680;2023-06-22T13:24:58;32.40;29.20
10231;DHT22;62604;49.432;8.680;2023-06-22T13:27:28;32.20;29.90
10231;DHT22;62604;49.432;8.680;2023-06-22T13:29:57;32.30;30.10
10231;DHT22;62604;49.432;8.680;2023-06-22T13:32:24;32.30;29.00
10231;DHT22;62604;49.432;8.680;2023-06-22T13:34:54;32.40;29.00
10231;DHT22;62604;49.432;8.680;2023-06-22T13:37:21;32.50;29.20
10231;DHT22;62604;49.432;8.680;2023-06-22T13:39:48;32.70;28.80
10231;DHT22;62604;49.432;8.680;2023-06-22T13:42:15;32.70;28.60
10231;DHT22;62604;49.432;8.680;2023-06-22T13:44:42;32.50;28.60
10231;DHT22;62604;49.432;8.680;2023-06-22T13:47:10;32.20;29.50
10231;DHT22;62604;49.432;8.680;2023-06-22T13:49:37;32.50;29.80
10231;DHT22;62604;49.432;8.680;2023-06-22T13:52:04;32.60;29.40
10231;DHT22;62604;49.432;8.680;2023-06-22T13:54:35;32.80;29.40
10231;DHT22;62604;49.432;8.680;2023-06-22T13:57:02;33.10;29.30
10231;DHT22;62604;49.432;8.680;2023-06-22T13:59:29;33.20;28.10
10231;DHT22;62604;49.432;8.680;2023-06-22T14:01:56;33.30;28.00
10231;DHT22;62604;49.432;8.680;2023-06-22T14:04:25;33.10;28.50
10231;DHT22;62604;49.432;8.680;2023-06-22T14:06:52;32.10;30.00
10231;DHT22;62604;49.432;8.680;2023-06-22T14:09:18;32.10;31.30
10231;DHT22;62604;49.432;8.680;2023-06-22T14:11:45;32.10;31.70
10231;DHT22;62604;49.432;8.680;2023-06-22T14:14:12;31.80;32.20
10231;DHT22;62604;49.432;8.680;2023-06-22T14:16:39;31.50;32.70
10231;DHT22;62604;49.432;8.680;2023-06-22T14:19:06;31.20;33.60
10231;DHT22;62604;49.432;8.680;2023-06-22T14:21:34;31.10;35.20
10231;DHT22;62604;49.432;8.680;2023-06-22T14:24:01;31.10;35.10
10231;DHT22;62604;49.432;8.680;2023-06-22T14:26:29;31.00;35.50
10231;DHT22;62604;49.432;8.680;2023-06-22T14:28:56;30.90;35.50
10231;DHT22;62604;49.432;8.680;2023-06-22T14:31:23;30.90;35.50
10231;DHT22;62604;49.432;8.680;2023-06-22T14:33:50;31.00;36.40
10231;DHT22;62604;49.432;8.680;2023-06-22T14:36:17;31.10;36.60
10231;DHT22;62604;49.432;8.680;2023-06-22T14:38:45;31.10;36.10
10231;DHT22;62604;49.432;8.680;2023-06-22T14:41:12;30.90;37.10
10231;DHT22;62604;49.432;8.680;2023-06-22T14:43:44;30.60;37.40
10231;DHT22;62604;49.432;8.680;2023-06-22T14:46:12;30.30;37.90
10231;DHT22;62604;49.432;8.680;2023-06-22T14:48:39;30.00;38.40
10231;DHT22;62604;49.432;8.680;2023-06-22T14:51:06;29.70;40.10
10231;DHT22;62604;49.432;8.680;2023-06-22T14:53:34;29.60;40.40
10231;DHT22;62604;49.432;8.680;2023-06-22T14:56:04;29.40;40.90
10231;DHT22;62604;49.432;8.680;2023-06-22T14:58:31;29.30;41.80
10231;DHT22;62604;49.432;8.680;2023-06-22T15:00:59;29.20;41.90
10231;DHT22;62604;49.432;8.680;2023-06-22T15:03:26;29.20;42.00
10231;DHT22;62604;49.432;8.680;2023-06-22T15:05:54;29.30;42.70
10231;DHT22;62604;49.432;8.680;2023-06-22T15:08:22;29.30;43.40
10231;DHT22;62604;49.432;8.680;2023-06-22T15:10:51;29.20;43.50
10231;DHT22;62604;49.432;8.680;2023-06-22T15:13:20;29.30;42.80
10231;DHT22;62604;49.432;8.680;2023-06-22T15:15:48;29.40;41.80
10231;DHT22;62604;49.432;8.680;2023-06-22T15:18:16;29.50;41.70
10231;DHT22;62604;49.432;8.680;2023-06-22T15:20:43;29.60;42.00
10231;DHT22;62604;49.432;8.680;2023-06-22T15:23:11;29.90;41.60
10231;DHT22;62604;49.432;8.680;2023-06-22T15:25:39;30.10;40.60
10231;DHT22;62604;49.432;8.680;2023-06-22T15:28:06;30.40;40.80
10231;DHT22;62604;49.432;8.680;2023-06-22T15:30:35;30.60;40.50
10231;DHT22;62604;49.432;8.680;2023-06-22T15:33:02;30.90;39.60